sensor_id;sensor_type;location;lat;lon;timestamp;temperature;humidity
38428;DHT22;24211;49.980;19.776;2024-01-06T00:00:05;2.50;99.90
38428;DHT22;24211;49.980;19.776;2024-01-06T00:02:57;2.70;99.90
38428;DHT22;24211;49.980;19.776;2024-01-06T00:05:25;3.10;99.90
38428;DHT22;24211;49.980;19.776;2024-01-06T00:07:52;3.10;99.90
38428;DHT22;24211;49.980;19.776;2024-01-06T00:10:19;3.00;99.90
38428;DHT22;24211;49.980;19.776;2024-01-06T00:12:47;3.10;99.90
38428;DHT22;24211;49.980;19.776;2024-01-06T00:15:15;2.40;99.90
38428;DHT22;24211;49.980;19.776;2024-01-06T00:17:43;2.20;99.90
38428;DHT22;24211;49.980;19.776;2024-01-06T00:20:10;2.40;99.90
38428;DHT22;24211;49.980;19.776;2024-01-06T00:22:38;2.40;99.90
38428;DHT22;24211;49.980;19.776;2024-01-06T00:25:06;2.60;99.90
38428;DHT22;24211;49.980;19.776;2024-01-06T00:27:33;2.80;99.90
38428;DHT22;24211;49.980;19.776;2024-01-06T00:30:01;2.90;99.90
38428;DHT22;24211;49.980;19.776;2024-01-06T00:32:28;3.20;99.90
38428;DHT22;24211;49.980;19.776;2024-01-06T00:34:56;2.80;99.90
38428;DHT22;24211;49.980;19.776;2024-01-06T00:37:23;2.60;99.90
38428;DHT22;24211;49.980;19.776;2024-01-06T00:39:50;2.70;99.90
38428;DHT22;24211;49.980;19.776;2024-01-06T00:42:18;2.60;99.90
38428;DHT22;24211;49.980;19.776;2024-01-06T00:44:45;2.80;99.90
38428;DHT22;24211;49.980;19.776;2024-01-06T00:47:14;2.50;99.90
38428;DHT22;24211;49.980;19.776;2024-01-06T00:49:44;2.30;99.90
38428;DHT22;24211;49.980;19.776;2024-01-06T00:52:17;2.50;99.90
38428;DHT22;24211;49.980;19.776;2024-01-06T00:54:44;2.30;99.90
38428;DHT22;24211;49.980;19.776;2024-01-06T00:57:11;2.20;99.90
38428;DHT22;24211;49.980;19.776;2024-01-06T00:59:39;2.40;99.90
38428;DHT22;24211;49.980;19.776;2024-01-06T01:02:06;2.60;99.90
38428;DHT22;24211;49.980;19.776;2024-01-06T01:04:34;2.90;99.90
38428;DHT22;24211;49.980;19.776;2024-01-06T01:07:01;3.10;99.90
38428;DHT22;24211;49.980;19.776;2024-01-06T01:09:28;2.90;99.90
38428;DHT22;24211;49.980;19.776;2024-01-06T01:11:56;2.90;99.90
38428;DHT22;24211;49.980;19.776;2024-01-06T01:14:23;2.90;99.90
38428;DHT22;24211;49.980;19.776;2024-01-06T01:16:51;3.10;99.90
38428;DHT22;24211;49.980;19.776;2024-01-06T01:19:18;2.80;99.90
38428;DHT22;24211;49.980;19.776;2024-01-06T01:21:46;2.70;99.90
38428;DHT22;24211;49.980;19.776;2024-01-06T01:24:13;2.80;99.90
38428;DHT22;24211;49.980;19.776;2024-01-06T01:26:41;2.80;99.90
38428;DHT22;24211;49.980;19.776;2024-01-06T01:29:08;2.90;99.90
38428;DHT22;24211;49.980;19.776;2024-01-06T01:31:35;2.90;99.90
38428;DHT22;24211;49.980;19.776;2024-01-06T01:34:02;2.80;99.90
38428;DHT22;24211;49.980;19.776;2024-01-06T01:36:30;3.00;99.90
38428;DHT22;24211;49.980;19.776;2024-01-06T01:38:57;3.10;99.90
38428;DHT22;24211;49.980;19.776;2024-01-06T01:41:25;2.70;99.90
38428;DHT22;24211;49.980;19.776;2024-01-06T01:43:52;2.70;99.90
38428;DHT22;24211;49.980;19.776;2024-01-06T01:46:26;2.90;99.90
38428;DHT22;24211;49.980;19.776;2024-01-06T01:48:58;3.20;99.90
38428;DHT22;24211;49.980;19.776;2024-01-06T01:51:30;3.20;99.90
38428;DHT22;24211;49.980;19.776;2024-01-06T01:54:02;3.40;99.90
38428;DHT22;24211;49.980;19.776;2024-01-06T01:56:32;3.50;99.90
38428;DHT22;24211;49.980;19.776;2024-01-06T01:59:06;3.60;99.90
38428;DHT22;24211;49.980;19.776;2024-01-06T02:01:41;3.60;99.90
38428;DHT22;24211;49.980;19.776;2024-01-06T02:04:09;3.60;99.90
38428;DHT22;24211;49.980;19.776;2024-01-06T02:06:36;3.60;99.90
38428;DHT22;24211;49.980;19.776;2024-01-06T02:09:04;3.60;99.90
38428;DHT22;24211;49.980;19.776;2024-01-06T02:11:32;3.60;99.90
38428;DHT22;24211;49.980;19.776;2024-01-06T02:13:59;3.70;99.90
38428;DHT22;24211;49.980;19.776;2024-01-06T02:16:27;3.70;99.90
38428;DHT22;24211;49.980;19.776;2024-01-06T02:18:55;3.80;99.90
38428;DHT22;24211;49.980;19.776;2024-01-06T02:21:28;3.80;99.90
38428;DHT22;24211;49.980;19.776;2024-01-06T02:23:58;3.80;99.90
38428;DHT22;24211;49.980;19.776;2024-01-06T02:26:25;3.70;99.90
38428;DHT22;24211;49.980;19.776;2024-01-06T02:28:52;3.70;99.90
38428;DHT22;24211;49.980;19.776;2024-01-06T02:31:20;3.70;99.90
38428;DHT22;24211;49.980;19.776;2024-01-06T02:33:47;3.80;99.90
38428;DHT22;24211;49.980;19.776;2024-01-06T02:36:15;3.80;99.90
38428;DHT22;24211;49.980;19.776;2024-01-06T02:38:42;3.80;99.90
38428;DHT22;24211;49.980;19.776;2024-01-06T02:41:09;3.80;99.90
38428;DHT22;24211;49.980;19.776;2024-01-06T02:43:37;3.80;99.90
38428;DHT22;24211;49.980;19.776;2024-01-06T02:46:04;3.80;99.90
38428;DHT22;24211;49.980;19.776;2024-01-06T02:48:34;3.70;99.90
38428;DHT22;24211;49.980;19.776;2024-01-06T02:51:01;3.70;99.90
38428;DHT22;24211;49.980;19.776;2024-01-06T02:53:31;3.70;99.90
38428;DHT22;24211;49.980;19.776;2024-01-06T02:55:58;3.70;99.90
38428;DHT22;24211;49.980;19.776;2024-01-06T02:58:26;3.70;99.90
38428;DHT22;24211;49.980;19.776;2024-01-06T03:00:54;3.70;99.90
38428;DHT22;24211;49.980;19.776;2024-01-06T03:03:21;3.60;99.90
38428;DHT22;24211;49.980;19.776;2024-01-06T03:05:49;3.50;99.90
38428;DHT22;24211;49.980;19.776;2024-01-06T03:08:16;3.50;99.90
38428;DHT22;24211;49.980;19.776;2024-01-06T03:10:44;3.40;99.90
38428;DHT22;24211;49.980;19.776;2024-01-06T03:13:11;3.20;99.90
38428;DHT22;24211;49.980;19.776;2024-01-06T03:15:38;3.30;99.90
38428;DHT22;24211;49.980;19.776;2024-01-06T03:18:07;3.00;99.90
38428;DHT22;24211;49.980;19.776;2024-01-06T03:20:36;3.30;99.90
38428;DHT22;24211;49.980;19.776;2024-01-06T03:23:03;3.10;99.90
38428;DHT22;24211;49.980;19.776;2024-01-06T03:25:31;3.10;99.90
38428;DHT22;24211;49.980;19.776;2024-01-06T03:27:58;2.90;99.90
38428;DHT22;24211;49.980;19.776;2024-01-06T03:30:25;2.80;99.90
38428;DHT22;24211;49.980;19.776;2024-01-06T03:32:53;2.30;99.90
38428;DHT22;24211;49.980;19.776;2024-01-06T03:35:20;2.30;99.90
38428;DHT22;24211;49.980;19.776;2024-01-06T03:37:48;2.30;99.90
38428;DHT22;24211;49.980;19.776;2024-01-06T03:40:15;2.40;99.90
38428;DHT22;24211;49.980;19.776;2024-01-06T03:42:42;2.50;99.90
38428;DHT22;24211;49.980;19.776;2024-01-06T03:45:10;2.50;99.90
38428;DHT22;24211;49.980;19.776;2024-01-06T03:47:37;2.50;99.90
38428;DHT22;24211;49.980;19.776;2024-01-06T03:50:05;2.60;99.90
38428;DHT22;24211;49.980;19.776;2024-01-06T03:52:33;2.90;99.90
38428;DHT22;24211;49.980;19.776;2024-01-06T03:55:00;2.60;99.90
38428;DHT22;24211;49.980;19.776;2024-01-06T03:57:28;2.50;99.90
38428;DHT22;24211;49.980;19.776;2024-01-06T03:59:56;2.70;99.90
38428;DHT22;24211;49.980;19.776;2024-01-06T04:02:23;2.70;99.90
38428;DHT22;24211;49.980;19.776;2024-01-06T04:04:51;2.70;99.90
38428;DHT22;24211;49.980;19.776;2024-01-06T04:07:18;2.90;99.90
38428;DHT22;24211;49.980;19.776;2024-01-06T04:09:45;2.80;99.90
38428;DHT22;24211;49.980;19.776;2024-01-06T04:12:13;2.80;99.90
38428;DHT22;24211;49.980;19.776;2024-01-06T04:14:41;2.90;99.90
38428;DHT22;24211;49.980;19.776;2024-01-06T04:17:08;2.70;99.90
38428;DHT22;24211;49.980;19.776;2024-01-06T04:19:35;3.00;99.90
38428;DHT22;24211;49.980;19.776;2024-01-06T04:22:02;2.90;99.90
38428;DHT22;24211;49.980;19.776;2024-01-06T04:24:30;2.80;99.90
38428;DHT22;24211;49.980;19.776;2024-01-06T04:26:57;2.80;99.90
38428;DHT22;24211;49.980;19.776;2024-01-06T04:29:25;2.80;99.90
38428;DHT22;24211;49.980;19.776;2024-01-06T04:31:52;2.90;99.90
38428;DHT22;24211;49.980;19.776;2024-01-06T04:34:20;3.10;99.90
38428;DHT22;24211;49.980;19.776;2024-01-06T04:36:47;3.10;99.90
38428;DHT22;24211;49.980;19.776;2024-01-06T04:39:16;3.10;99.90
38428;DHT22;24211;49.980;19.776;2024-01-06T04:41:44;3.00;99.90
38428;DHT22;24211;49.980;19.776;2024-01-06T04:44:11;2.90;99.90
38428;DHT22;24211;49.980;19.776;2024-01-06T04:46:38;2.80;99.90
38428;DHT22;24211;49.980;19.776;2024-01-06T04:49:05;2.90;99.90
38428;DHT22;24211;49.980;19.776;2024-01-06T04:51:33;2.80;99.90
38428;DHT22;24211;49.980;19.776;2024-01-06T04:54:00;2.90;99.90
38428;DHT22;24211;49.980;19.776;2024-01-06T04:56:28;3.00;99.90
38428;DHT22;24211;49.980;19.776;2024-01-06T04:58:57;3.20;99.90
38428;DHT22;24211;49.980;19.776;2024-01-06T05:01:25;3.20;99.90
38428;DHT22;24211;49.980;19.776;2024-01-06T05:03:52;3.50;99.90
38428;DHT22;24211;49.980;19.776;2024-01-06T05:06:20;3.70;99.90
38428;DHT22;24211;49.980;19.776;2024-01-06T05:08:47;3.70;99.90
38428;DHT22;24211;49.980;19.776;2024-01-06T05:11:15;3.80;99.90
38428;DHT22;24211;49.980;19.776;2024-01-06T05:13:42;3.90;99.90
38428;DHT22;24211;49.980;19.776;2024-01-06T05:16:09;3.90;99.90
38428;DHT22;24211;49.980;19.776;2024-01-06T05:18:36;3.90;99.90
38428;DHT22;24211;49.980;19.776;2024-01-06T05:21:04;3.90;99.90
38428;DHT22;24211;49.980;19.776;2024-01-06T05:23:31;3.60;99.90
38428;DHT22;24211;49.980;19.776;2024-01-06T05:25:59;3.50;99.90
38428;DHT22;24211;49.980;19.776;2024-01-06T05:28:26;3.60;99.90
38428;DHT22;24211;49.980;19.776;2024-01-06T05:30:53;3.40;99.90
38428;DHT22;24211;49.980;19.776;2024-01-06T05:33:21;3.60;99.90
38428;DHT22;24211;49.980;19.776;2024-01-06T05:35:48;3.60;99.90
38428;DHT22;24211;49.980;19.776;2024-01-06T05:38:16;3.60;99.90
38428;DHT22;24211;49.980;19.776;2024-01-06T05:40:43;3.30;99.90
38428;DHT22;24211;49.980;19.776;2024-01-06T05:43:11;3.00;99.90
38428;DHT22;24211;49.980;19.776;2024-01-06T05:45:39;3.00;99.90
38428;DHT22;24211;49.980;19.776;2024-01-06T05:48:11;3.00;99.90
38428;DHT22;24211;49.980;19.776;2024-01-06T05:50:39;3.20;99.90
38428;DHT22;24211;49.980;19.776;2024-01-06T05:53:08;3.30;99.90
38428;DHT22;24211;49.980;19.776;2024-01-06T05:55:36;3.00;99.90
38428;DHT22;24211;49.980;19.776;2024-01-06T05:58:05;3.20;99.90
38428;DHT22;24211;49.980;19.776;2024-01-06T06:00:34;3.50;99.90
38428;DHT22;24211;49.980;19.776;2024-01-06T06:03:05;3.50;99.90
38428;DHT22;24211;49.980;19.776;2024-01-06T06:05:34;3.50;99.90
38428;DHT22;24211;49.980;19.776;2024-01-06T06:08:02;3.60;99.90
38428;DHT22;24211;49.980;19.776;2024-01-06T06:10:29;3.30;99.90
38428;DHT22;24211;49.980;19.776;2024-01-06T06:13:08;3.50;99.90
38428;DHT22;24211;49.980;19.776;2024-01-06T06:15:37;3.30;99.90
38428;DHT22;24211;49.980;19.776;2024-01-06T06:18:08;3.00;99.90
38428;DHT22;24211;49.980;19.776;2024-01-06T06:20:37;3.00;99.90
38428;DHT22;24211;49.980;19.776;2024-01-06T06:23:16;2.90;99.90
38428;DHT22;24211;49.980;19.776;2024-01-06T06:25:57;3.10;99.90
38428;DHT22;24211;49.980;19.776;2024-01-06T06:28:34;2.90;99.90
38428;DHT22;24211;49.980;19.776;2024-01-06T06:31:02;3.10;99.90
38428;DHT22;24211;49.980;19.776;2024-01-06T06:33:58;3.00;99.90
38428;DHT22;24211;49.980;19.776;2024-01-06T06:36:26;2.80;99.90
38428;DHT22;24211;49.980;19.776;2024-01-06T06:39:05;2.80;99.90
38428;DHT22;24211;49.980;19.776;2024-01-06T06:41:35;2.70;99.90
38428;DHT22;24211;49.980;19.776;2024-01-06T06:44:12;3.00;99.90
38428;DHT22;24211;49.980;19.776;2024-01-06T06:46:40;2.80;99.90
38428;DHT22;24211;49.980;19.776;2024-01-06T06:49:07;2.90;99.90
38428;DHT22;24211;49.980;19.776;2024-01-06T06:51:35;3.00;99.90
38428;DHT22;24211;49.980;19.776;2024-01-06T06:54:03;3.20;99.90
38428;DHT22;24211;49.980;19.776;2024-01-06T06:56:52;3.40;99.90
38428;DHT22;24211;49.980;19.776;2024-01-06T06:59:20;3.50;99.90
38428;DHT22;24211;49.980;19.776;2024-01-06T07:01:52;3.60;99.90
38428;DHT22;24211;49.980;19.776;2024-01-06T07:04:22;3.50;99.90
38428;DHT22;24211;49.980;19.776;2024-01-06T07:06:57;3.40;99.90
38428;DHT22;24211;49.980;19.776;2024-01-06T07:09:27;3.20;99.90
38428;DHT22;24211;49.980;19.776;2024-01-06T07:12:03;3.30;99.90
38428;DHT22;24211;49.980;19.776;2024-01-06T07:14:30;3.50;99.90
38428;DHT22;24211;49.980;19.776;2024-01-06T07:17:01;3.50;99.90
38428;DHT22;24211;49.980;19.776;2024-01-06T07:19:32;3.40;99.90
38428;DHT22;24211;49.980;19.776;2024-01-06T07:22:02;3.60;99.90
38428;DHT22;24211;49.980;19.776;2024-01-06T07:24:33;3.70;99.90
38428;DHT22;24211;49.980;19.776;2024-01-06T07:27:00;3.60;99.90
38428;DHT22;24211;49.980;19.776;2024-01-06T07:29:31;3.70;99.90
38428;DHT22;24211;49.980;19.776;2024-01-06T07:32:05;3.70;99.90
38428;DHT22;24211;49.980;19.776;2024-01-06T07:35:00;3.70;99.90
38428;DHT22;24211;49.980;19.776;2024-01-06T07:37:44;3.70;99.90
38428;DHT22;24211;49.980;19.776;2024-01-06T07:40:12;3.80;99.90
38428;DHT22;24211;49.980;19.776;2024-01-06T07:42:51;3.90;99.90
38428;DHT22;24211;49.980;19.776;2024-01-06T07:45:18;3.80;99.90
38428;DHT22;24211;49.980;19.776;2024-01-06T07:47:46;3.60;99.90
38428;DHT22;24211;49.980;19.776;2024-01-06T07:50:13;3.60;99.90
38428;DHT22;24211;49.980;19.776;2024-01-06T07:52:41;3.40;99.90
38428;DHT22;24211;49.980;19.776;2024-01-06T07:55:08;3.40;99.90
38428;DHT22;24211;49.980;19.776;2024-01-06T07:57:37;3.40;99.90
38428;DHT22;24211;49.980;19.776;2024-01-06T08:00:08;3.20;99.90
38428;DHT22;24211;49.980;19.776;2024-01-06T08:02:40;2.90;99.90
38428;DHT22;24211;49.980;19.776;2024-01-06T08:05:12;3.20;99.90
38428;DHT22;24211;49.980;19.776;2024-01-06T08:07:40;3.30;99.90
38428;DHT22;24211;49.980;19.776;2024-01-06T08:10:08;3.10;99.90
38428;DHT22;24211;49.980;19.776;2024-01-06T08:12:36;3.00;99.90
38428;DHT22;24211;49.980;19.776;2024-01-06T08:15:04;3.00;99.90
38428;DHT22;24211;49.980;19.776;2024-01-06T08:17:49;2.90;99.90
38428;DHT22;24211;49.980;19.776;2024-01-06T08:20:18;3.10;99.90
38428;DHT22;24211;49.980;19.776;2024-01-06T08:22:45;3.20;99.90
38428;DHT22;24211;49.980;19.776;2024-01-06T08:25:13;3.10;99.90
38428;DHT22;24211;49.980;19.776;2024-01-06T08:27:41;3.20;99.90
38428;DHT22;24211;49.980;19.776;2024-01-06T08:30:08;3.10;99.90
38428;DHT22;24211;49.980;19.776;2024-01-06T08:32:36;3.20;99.90
38428;DHT22;24211;49.980;19.776;2024-01-06T08:35:11;3.10;99.90
38428;DHT22;24211;49.980;19.776;2024-01-06T08:37:39;3.00;99.90
38428;DHT22;24211;49.980;19.776;2024-01-06T08:40:08;3.10;99.90
38428;DHT22;24211;49.980;19.776;2024-01-06T08:42:36;3.20;99.90
38428;DHT22;24211;49.980;19.776;2024-01-06T08:45:08;3.30;99.90
38428;DHT22;24211;49.980;19.776;2024-01-06T08:47:37;3.30;99.90
38428;DHT22;24211;49.980;19.776;2024-01-06T08:50:10;3.60;99.90
38428;DHT22;24211;49.980;19.776;2024-01-06T08:52:38;3.80;99.90
38428;DHT22;24211;49.980;19.776;2024-01-06T08:55:07;3.90;99.90
38428;DHT22;24211;49.980;19.776;2024-01-06T08:57:35;4.00;99.90
38428;DHT22;24211;49.980;19.776;2024-01-06T09:00:03;3.80;99.90
38428;DHT22;24211;49.980;19.776;2024-01-06T09:02:31;3.80;99.90
38428;DHT22;24211;49.980;19.776;2024-01-06T09:04:59;3.50;99.90
38428;DHT22;24211;49.980;19.776;2024-01-06T09:07:30;3.40;99.90
38428;DHT22;24211;49.980;19.776;2024-01-06T09:10:00;3.60;99.90
38428;DHT22;24211;49.980;19.776;2024-01-06T09:12:29;3.50;99.90
38428;DHT22;24211;49.980;19.776;2024-01-06T09:14:56;3.30;99.90
38428;DHT22;24211;49.980;19.776;2024-01-06T09:17:24;3.40;99.90
38428;DHT22;24211;49.980;19.776;2024-01-06T09:19:57;3.70;99.90
38428;DHT22;24211;49.980;19.776;2024-01-06T09:22:28;3.80;99.90
38428;DHT22;24211;49.980;19.776;2024-01-06T09:24:55;3.80;99.90
38428;DHT22;24211;49.980;19.776;2024-01-06T09:27:27;3.90;99.90
38428;DHT22;24211;49.980;19.776;2024-01-06T09:29:55;4.00;99.90
38428;DHT22;24211;49.980;19.776;2024-01-06T09:32:22;4.10;99.90
38428;DHT22;24211;49.980;19.776;2024-01-06T09:34:59;4.20;99.90
38428;DHT22;24211;49.980;19.776;2024-01-06T09:40:45;4.00;99.90
38428;DHT22;24211;49.980;19.776;2024-01-06T09:43:42;3.80;99.90
38428;DHT22;24211;49.980;19.776;2024-01-06T09:46:28;3.90;99.90
38428;DHT22;24211;49.980;19.776;2024-01-06T09:49:26;4.10;99.90
38428;DHT22;24211;49.980;19.776;2024-01-06T09:55:56;4.20;99.90
38428;DHT22;24211;49.980;19.776;2024-01-06T09:58:30;4.30;99.90
38428;DHT22;24211;49.980;19.776;2024-01-06T10:01:03;4.10;99.90
38428;DHT22;24211;49.980;19.776;2024-01-06T10:03:32;3.80;99.90
38428;DHT22;24211;49.980;19.776;2024-01-06T10:06:01;3.80;99.90
38428;DHT22;24211;49.980;19.776;2024-01-06T10:08:30;3.80;99.90
38428;DHT22;24211;49.980;19.776;2024-01-06T10:11:07;4.00;99.90
38428;DHT22;24211;49.980;19.776;2024-01-06T10:13:37;3.90;99.90
38428;DHT22;24211;49.980;19.776;2024-01-06T10:16:15;3.80;99.90
38428;DHT22;24211;49.980;19.776;2024-01-06T10:18:44;3.80;99.90
38428;DHT22;24211;49.980;19.776;2024-01-06T10:21:23;3.70;99.90
38428;DHT22;24211;49.980;19.776;2024-01-06T10:23:54;3.80;99.90
38428;DHT22;24211;49.980;19.776;2024-01-06T10:26:22;3.90;99.90
38428;DHT22;24211;49.980;19.776;2024-01-06T10:28:49;3.90;99.90
38428;DHT22;24211;49.980;19.776;2024-01-06T10:31:43;3.80;99.90
38428;DHT22;24211;49.980;19.776;2024-01-06T10:34:17;3.80;99.90
38428;DHT22;24211;49.980;19.776;2024-01-06T10:36:49;3.60;99.90
38428;DHT22;24211;49.980;19.776;2024-01-06T10:39:17;3.70;99.90
38428;DHT22;24211;49.980;19.776;2024-01-06T10:41:46;3.60;99.90
38428;DHT22;24211;49.980;19.776;2024-01-06T10:44:15;3.80;99.90
38428;DHT22;24211;49.980;19.776;2024-01-06T10:47:04;3.80;99.90
38428;DHT22;24211;49.980;19.776;2024-01-06T10:49:36;4.00;99.90
38428;DHT22;24211;49.980;19.776;2024-01-06T10:52:31;3.80;99.90
38428;DHT22;24211;49.980;19.776;2024-01-06T10:54:59;3.90;99.90
38428;DHT22;24211;49.980;19.776;2024-01-06T10:57:53;4.20;99.90
38428;DHT22;24211;49.980;19.776;2024-01-06T11:00:22;4.20;99.90
38428;DHT22;24211;49.980;19.776;2024-01-06T11:06:35;4.20;99.90
38428;DHT22;24211;49.980;19.776;2024-01-06T11:09:21;4.20;99.90
38428;DHT22;24211;49.980;19.776;2024-01-06T11:11:55;4.50;99.90
38428;DHT22;24211;49.980;19.776;2024-01-06T11:14:25;4.40;99.90
38428;DHT22;24211;49.980;19.776;2024-01-06T11:20:32;4.30;99.90
38428;DHT22;24211;49.980;19.776;2024-01-06T11:23:19;4.40;99.90
38428;DHT22;24211;49.980;19.776;2024-01-06T11:25:47;4.40;99.90
38428;DHT22;24211;49.980;19.776;2024-01-06T11:28:17;4.30;99.90
38428;DHT22;24211;49.980;19.776;2024-01-06T11:30:44;4.50;99.90
38428;DHT22;24211;49.980;19.776;2024-01-06T11:33:12;4.70;99.90
38428;DHT22;24211;49.980;19.776;2024-01-06T11:35:40;4.80;99.90
38428;DHT22;24211;49.980;19.776;2024-01-06T11:38:07;4.50;99.90
38428;DHT22;24211;49.980;19.776;2024-01-06T11:40:44;4.60;99.90
38428;DHT22;24211;49.980;19.776;2024-01-06T11:43:38;4.50;99.90
38428;DHT22;24211;49.980;19.776;2024-01-06T11:46:21;4.60;99.90
38428;DHT22;24211;49.980;19.776;2024-01-06T11:49:38;4.50;99.90
38428;DHT22;24211;49.980;19.776;2024-01-06T11:52:06;4.60;99.90
38428;DHT22;24211;49.980;19.776;2024-01-06T11:54:42;4.50;99.90
38428;DHT22;24211;49.980;19.776;2024-01-06T11:57:09;4.50;99.90
38428;DHT22;24211;49.980;19.776;2024-01-06T11:59:36;4.70;99.90
38428;DHT22;24211;49.980;19.776;2024-01-06T12:06:02;4.90;99.90
38428;DHT22;24211;49.980;19.776;2024-01-06T12:08:32;4.80;99.90
38428;DHT22;24211;49.980;19.776;2024-01-06T12:11:03;4.60;99.90
38428;DHT22;24211;49.980;19.776;2024-01-06T12:13:31;4.30;99.90
38428;DHT22;24211;49.980;19.776;2024-01-06T12:15:58;4.50;99.90
38428;DHT22;24211;49.980;19.776;2024-01-06T12:18:26;4.60;99.90
38428;DHT22;24211;49.980;19.776;2024-01-06T12:20:54;4.50;99.90
38428;DHT22;24211;49.980;19.776;2024-01-06T12:23:31;4.60;99.90
38428;DHT22;24211;49.980;19.776;2024-01-06T12:26:00;4.50;99.90
38428;DHT22;24211;49.980;19.776;2024-01-06T12:28:53;4.50;99.90
38428;DHT22;24211;49.980;19.776;2024-01-06T12:31:21;4.60;99.90
38428;DHT22;24211;49.980;19.776;2024-01-06T12:33:50;4.40;99.90
38428;DHT22;24211;49.980;19.776;2024-01-06T12:36:43;4.50;99.90
38428;DHT22;24211;49.980;19.776;2024-01-06T12:39:20;4.40;99.90
38428;DHT22;24211;49.980;19.776;2024-01-06T12:42:15;4.40;99.90
38428;DHT22;24211;49.980;19.776;2024-01-06T12:44:43;4.50;99.90
38428;DHT22;24211;49.980;19.776;2024-01-06T12:51:24;4.50;99.90
38428;DHT22;24211;49.980;19.776;2024-01-06T12:53:54;5.00;99.90
38428;DHT22;24211;49.980;19.776;2024-01-06T12:56:27;4.80;99.90
38428;DHT22;24211;49.980;19.776;2024-01-06T12:59:00;4.70;99.90
38428;DHT22;24211;49.980;19.776;2024-01-06T13:01:27;4.70;99.90
38428;DHT22;24211;49.980;19.776;2024-01-06T13:03:55;4.60;99.90
38428;DHT22;24211;49.980;19.776;2024-01-06T13:06:39;4.60;99.90
38428;DHT22;24211;49.980;19.776;2024-01-06T13:09:07;4.50;99.90
38428;DHT22;24211;49.980;19.776;2024-01-06T13:11:48;4.60;99.90
38428;DHT22;24211;49.980;19.776;2024-01-06T13:14:17;4.50;99.90
38428;DHT22;24211;49.980;19.776;2024-01-06T13:16:45;4.30;99.90
38428;DHT22;24211;49.980;19.776;2024-01-06T13:19:14;4.50;99.90
38428;DHT22;24211;49.980;19.776;2024-01-06T13:21:41;4.40;99.90
38428;DHT22;24211;49.980;19.776;2024-01-06T13:24:09;4.40;99.90
38428;DHT22;24211;49.980;19.776;2024-01-06T13:26:40;4.20;99.90
38428;DHT22;24211;49.980;19.776;2024-01-06T13:29:08;4.10;99.90
38428;DHT22;24211;49.980;19.776;2024-01-06T13:31:47;4.00;99.90
38428;DHT22;24211;49.980;19.776;2024-01-06T13:34:15;4.00;99.90
38428;DHT22;24211;49.980;19.776;2024-01-06T13:36:51;4.00;99.90
38428;DHT22;24211;49.980;19.776;2024-01-06T13:39:21;4.00;99.90
38428;DHT22;24211;49.980;19.776;2024-01-06T13:44:40;4.00;99.90
38428;DHT22;24211;49.980;19.776;2024-01-06T13:47:08;3.90;99.90
38428;DHT22;24211;49.980;19.776;2024-01-06T13:50:26;3.80;99.90
38428;DHT22;24211;49.980;19.776;2024-01-06T13:52:54;3.90;99.90
38428;DHT22;24211;49.980;19.776;2024-01-06T13:55:22;3.70;99.90
38428;DHT22;24211;49.980;19.776;2024-01-06T13:57:58;3.80;99.90
38428;DHT22;24211;49.980;19.776;2024-01-06T14:00:31;3.80;99.90
38428;DHT22;24211;49.980;19.776;2024-01-06T14:02:59;3.90;99.90
38428;DHT22;24211;49.980;19.776;2024-01-06T14:05:36;3.90;99.90
38428;DHT22;24211;49.980;19.776;2024-01-06T14:08:09;3.90;99.90
38428;DHT22;24211;49.980;19.776;2024-01-06T14:11:02;4.00;99.90
38428;DHT22;24211;49.980;19.776;2024-01-06T14:13:32;3.80;99.90
38428;DHT22;24211;49.980;19.776;2024-01-06T14:16:32;3.80;99.90
38428;DHT22;24211;49.980;19.776;2024-01-06T14:18:59;3.70;99.90
38428;DHT22;24211;49.980;19.776;2024-01-06T14:21:28;3.80;99.90
38428;DHT22;24211;49.980;19.776;2024-01-06T14:23:59;4.00;99.90
38428;DHT22;24211;49.980;19.776;2024-01-06T14:26:38;3.80;99.90
38428;DHT22;24211;49.980;19.776;2024-01-06T14:29:12;3.70;99.90
38428;DHT22;24211;49.980;19.776;2024-01-06T14:31:50;3.60;99.90
38428;DHT22;24211;49.980;19.776;2024-01-06T14:34:17;3.60;99.90
38428;DHT22;24211;49.980;19.776;2024-01-06T14:36:44;3.60;99.90
38428;DHT22;24211;49.980;19.776;2024-01-06T14:39:40;3.70;99.90
38428;DHT22;24211;49.980;19.776;2024-01-06T14:42:27;3.70;99.90
38428;DHT22;24211;49.980;19.776;2024-01-06T14:45:02;3.60;99.90
38428;DHT22;24211;49.980;19.776;2024-01-06T14:47:35;3.60;99.90
38428;DHT22;24211;49.980;19.776;2024-01-06T14:50:03;3.60;99.90
38428;DHT22;24211;49.980;19.776;2024-01-06T14:52:31;3.60;99.90
38428;DHT22;24211;49.980;19.776;2024-01-06T14:55:17;3.60;99.90
38428;DHT22;24211;49.980;19.776;2024-01-06T14:57:53;3.90;99.90
38428;DHT22;24211;49.980;19.776;2024-01-06T15:00:36;4.10;99.90
38428;DHT22;24211;49.980;19.776;2024-01-06T15:03:03;4.40;99.90
38428;DHT22;24211;49.980;19.776;2024-01-06T15:05:56;4.50;99.90
38428;DHT22;24211;49.980;19.776;2024-01-06T15:08:23;4.70;99.90
38428;DHT22;24211;49.980;19.776;2024-01-06T15:11:16;4.50;99.90
38428;DHT22;24211;49.980;19.776;2024-01-06T15:13:47;4.30;99.90
38428;DHT22;24211;49.980;19.776;2024-01-06T15:16:22;4.20;99.90
38428;DHT22;24211;49.980;19.776;2024-01-06T15:18:49;4.10;99.90
38428;DHT22;24211;49.980;19.776;2024-01-06T15:21:17;3.90;99.90
38428;DHT22;24211;49.980;19.776;2024-01-06T15:24:30;4.10;99.90
38428;DHT22;24211;49.980;19.776;2024-01-06T15:27:04;3.90;99.90
38428;DHT22;24211;49.980;19.776;2024-01-06T15:29:57;3.80;99.90
38428;DHT22;24211;49.980;19.776;2024-01-06T15:32:24;3.60;99.90
38428;DHT22;24211;49.980;19.776;2024-01-06T15:35:01;3.60;99.90
38428;DHT22;24211;49.980;19.776;2024-01-06T15:37:30;3.60;99.90
38428;DHT22;24211;49.980;19.776;2024-01-06T15:39:58;3.50;99.90
38428;DHT22;24211;49.980;19.776;2024-01-06T15:42:30;3.50;99.90
38428;DHT22;24211;49.980;19.776;2024-01-06T15:45:02;3.50;99.90
38428;DHT22;24211;49.980;19.776;2024-01-06T15:47:40;3.40;99.90
38428;DHT22;24211;49.980;19.776;2024-01-06T15:50:24;3.60;99.90
38428;DHT22;24211;49.980;19.776;2024-01-06T15:52:53;3.70;99.90
38428;DHT22;24211;49.980;19.776;2024-01-06T15:55:20;3.70;99.90
38428;DHT22;24211;49.980;19.776;2024-01-06T15:58:01;3.70;99.90
38428;DHT22;24211;49.980;19.776;2024-01-06T16:00:28;3.80;99.90
38428;DHT22;24211;49.980;19.776;2024-01-06T16:02:55;3.70;99.90
38428;DHT22;24211;49.980;19.776;2024-01-06T16:05:32;3.60;99.90
38428;DHT22;24211;49.980;19.776;2024-01-06T16:08:00;3.50;99.90
38428;DHT22;24211;49.980;19.776;2024-01-06T16:10:52;3.80;99.90
38428;DHT22;24211;49.980;19.776;2024-01-06T16:13:29;3.70;99.90
38428;DHT22;24211;49.980;19.776;2024-01-06T16:15:57;3.80;99.90
38428;DHT22;24211;49.980;19.776;2024-01-06T16:18:54;3.90;99.90
38428;DHT22;24211;49.980;19.776;2024-01-06T16:21:47;3.80;99.90